createdAt,value
2018-06-17T00:04:17.320Z,100991.84
2018-06-17T00:09:20.371Z,100988.61
2018-06-17T00:14:23.490Z,100979.95
2018-06-17T00:19:26.528Z,100983.91
2018-06-17T00:24:29.618Z,100987.78
2018-06-17T00:29:32.721Z,100986.63
2018-06-17T00:34:35.845Z,100990.83
2018-06-17T00:39:39.015Z,100991.91
2018-06-17T00:44:42.031Z,100999.19
2018-06-17T00:49:45.070Z,100998.08
2018-06-17T00:54:48.114Z,101009.35
2018-06-17T00:59:51.165Z,101009.10
2018-06-17T01:04:54.370Z,101002.69
2018-06-17T01:09:57.947Z,101003.06
2018-06-17T01:15:01.014Z,101005.73
2018-06-17T01:20:04.833Z,101005.73
2018-06-17T01:25:16.852Z,101013.31
2018-06-17T01:30:19.984Z,100999.84
2018-06-17T01:35:23.050Z,101004.41
2018-06-17T01:40:26.187Z,101006.72
2018-06-17T01:45:29.273Z,101008.45
2018-06-17T01:50:32.313Z,101006.36
2018-06-17T01:55:35.465Z,101005.59
2018-06-17T02:00:38.607Z,101006.55
2018-06-17T02:05:47.358Z,100921.59
2018-06-17T02:10:56.086Z,101002.67
2018-06-17T02:15:59.249Z,101011.86
2018-06-17T02:21:02.409Z,101011.39
2018-06-17T02:26:05.433Z,101013.28
2018-06-17T02:31:08.578Z,100942.63
2018-06-17T02:36:11.662Z,101018.19
2018-06-17T02:41:14.734Z,101020.67
2018-06-17T02:46:23.402Z,101018.95
2018-06-17T02:51:32.011Z,101010.89
2018-06-17T02:56:35.104Z,101005.59
2018-06-17T03:01:38.150Z,101008.70
2018-06-17T03:06:41.574Z,101002.54
2018-06-17T03:11:44.898Z,101005.38
2018-06-17T03:16:47.955Z,101009.83
2018-06-17T03:21:51.305Z,101012.02
2018-06-17T03:27:00.150Z,101014.20
2018-06-17T03:32:08.933Z,101022.70
2018-06-17T03:37:11.981Z,101016.08
2018-06-17T03:42:15.052Z,101022.92
2018-06-17T03:47:18.140Z,101021.05
2018-06-17T03:52:21.143Z,101021.14
2018-06-17T03:57:24.197Z,101019.05
2018-06-17T04:02:27.376Z,101033.24
2018-06-17T04:07:30.565Z,101033.23
2018-06-17T04:12:33.771Z,101038.90
2018-06-17T04:17:36.825Z,101034.24
2018-06-17T04:22:39.902Z,101032.91
2018-06-17T04:27:42.977Z,101044.29
2018-06-17T04:32:46.116Z,101053.48
2018-06-17T04:37:49.182Z,101056.99
2018-06-17T04:42:52.250Z,101046.55
2018-06-17T04:47:55.291Z,101038.69
2018-06-17T04:52:58.383Z,101053.02
2018-06-17T04:58:06.718Z,101056.90
2018-06-17T05:03:09.918Z,101064.25
2018-06-17T05:08:13.135Z,101059.89
2018-06-17T05:13:16.735Z,101059.45
2018-06-17T05:18:19.769Z,101063.92
2018-06-17T05:23:22.794Z,101071.47
2018-06-17T05:28:25.871Z,101076.66
2018-06-17T05:33:28.909Z,101071.73
2018-06-17T05:38:32.074Z,101081.86
2018-06-17T05:43:35.199Z,101079.08
2018-06-17T05:48:38.218Z,101074.48
2018-06-17T05:53:41.287Z,101076.95
2018-06-17T05:58:44.274Z,101072.52
2018-06-17T06:03:47.295Z,101075.92
2018-06-17T06:08:50.321Z,101077.20
2018-06-17T06:13:53.370Z,101077.66
2018-06-17T06:18:56.401Z,101073.95
2018-06-17T06:23:59.426Z,101083.55
2018-06-17T06:29:02.653Z,101079.28
2018-06-17T06:34:05.674Z,101081.57
2018-06-17T06:39:10.017Z,101083.72
2018-06-17T06:44:13.038Z,101088.75
2018-06-17T06:49:16.050Z,101084.92
2018-06-17T06:54:19.043Z,101094.61
2018-06-17T06:59:22.057Z,101088.82
2018-06-17T07:04:42.361Z,101092.27
2018-06-17T07:10:02.903Z,101095.46
2018-06-17T07:15:06.207Z,101103.31
2018-06-17T07:20:09.351Z,101097.75
2018-06-17T07:25:22.453Z,101104.33
2018-06-17T07:30:25.462Z,101108.44
2018-06-17T07:35:28.787Z,101098.09
2018-06-17T07:40:49.223Z,101102.73
2018-06-17T07:45:52.363Z,101105.80
2018-06-17T07:51:12.337Z,101105.16
2018-06-17T07:56:15.469Z,101100.80
2018-06-17T08:01:18.511Z,101104.22
2018-06-17T08:06:21.570Z,101104.58
2018-06-17T08:11:24.590Z,101102.55
2018-06-17T08:16:27.662Z,101098.11
2018-06-17T08:21:30.869Z,101090.42
2018-06-17T08:26:34.106Z,101082.76
2018-06-17T08:31:37.241Z,101090.37
2018-06-17T08:36:40.873Z,101088.23
2018-06-17T08:41:43.913Z,101090.17
2018-06-17T08:46:47.803Z,101094.51
2018-06-17T08:51:50.865Z,101097.70
2018-06-17T08:56:53.896Z,101100.59
2018-06-17T09:01:57.063Z,101103.84
2018-06-17T09:07:00.098Z,101113.91
2018-06-17T09:12:03.146Z,101116.62
2018-06-17T09:17:06.193Z,101124.10
2018-06-17T09:22:09.226Z,101125.43
2018-06-17T09:27:12.246Z,101118.81
2018-06-17T09:32:15.402Z,101121.41
2018-06-17T09:37:18.409Z,101124.98
2018-06-17T09:42:21.434Z,101126.03
2018-06-17T09:47:24.479Z,101124.38
2018-06-17T09:52:27.495Z,101123.39
2018-06-17T09:57:30.506Z,101113.91
2018-06-17T10:02:33.594Z,101120.09
2018-06-17T10:07:36.617Z,101129.86
2018-06-17T10:12:39.647Z,101126.94
2018-06-17T10:17:42.702Z,101130.89
2018-06-17T10:22:45.838Z,101134.97
2018-06-17T10:27:49.044Z,101132.88
2018-06-17T10:32:53.855Z,101130.61
2018-06-17T10:37:57.288Z,101137.09
2018-06-17T10:43:00.285Z,101139.77
2018-06-17T10:48:03.742Z,101147.42
2018-06-17T10:53:07.071Z,101147.55
2018-06-17T10:58:10.179Z,101151.79
2018-06-17T11:03:13.224Z,101155.68
2018-06-17T11:08:16.394Z,101062.47
2018-06-17T11:13:19.520Z,101155.41
2018-06-17T11:18:22.534Z,101154.69
2018-06-17T11:23:25.770Z,101153.30
2018-06-17T11:28:28.765Z,101158.45
2018-06-17T11:33:31.832Z,101153.97
2018-06-17T11:38:34.889Z,101165.30
2018-06-17T11:43:37.889Z,101163.23
2018-06-17T11:48:40.945Z,101168.30
2018-06-17T11:53:43.990Z,101187.09
2018-06-17T11:58:47.121Z,101179.43
2018-06-17T12:03:50.173Z,101175.56
2018-06-17T12:08:53.329Z,101180.09
2018-06-17T12:13:56.371Z,101191.09
2018-06-17T12:18:59.558Z,101184.23
2018-06-17T12:24:02.610Z,101193.59
2018-06-17T12:29:05.746Z,101180.30
2018-06-17T12:34:08.808Z,101185.42
2018-06-17T12:39:12.927Z,101192.19
2018-06-17T12:44:15.949Z,101192.19
2018-06-17T12:49:19.167Z,101194.05
2018-06-17T12:54:22.212Z,101192.59
2018-06-17T12:59:25.271Z,101189.22
2018-06-17T13:04:28.403Z,101194.03
2018-06-17T13:09:31.424Z,101197.97
2018-06-17T13:14:34.515Z,101200.77
2018-06-17T13:19:37.538Z,101203.47
2018-06-17T13:24:40.575Z,101213.55
2018-06-17T13:29:43.685Z,101223.37
2018-06-17T13:34:46.769Z,101228.41
2018-06-17T13:39:49.803Z,101230.92
2018-06-17T13:44:52.834Z,101230.82
2018-06-17T13:49:55.883Z,101233.34
2018-06-17T13:54:58.886Z,101235.28
2018-06-17T14:00:01.942Z,101246.38
2018-06-17T14:05:05.254Z,101249.05
2018-06-17T14:10:08.261Z,101255.81
2018-06-17T14:15:11.270Z,101265.11
2018-06-17T14:20:14.337Z,101262.43
2018-06-17T14:25:17.393Z,101267.17
2018-06-17T14:30:20.461Z,101270.72
2018-06-17T14:35:23.475Z,101271.55
2018-06-17T14:40:26.511Z,101274.62
2018-06-17T14:46:38.750Z,101263.83
2018-06-17T14:51:48.839Z,101267.28
2018-06-17T14:56:51.861Z,101260.61
2018-06-17T15:01:54.998Z,101255.85
2018-06-17T15:06:58.071Z,101257.70
2018-06-17T15:12:01.884Z,101260.26
2018-06-17T15:17:05.141Z,101258.52
2018-06-17T15:22:08.186Z,101268.84
2018-06-17T15:27:11.262Z,101267.42
2018-06-17T15:32:19.891Z,101267.52
2018-06-17T15:37:28.677Z,101262.57
2018-06-17T15:42:31.734Z,101260.50
2018-06-17T15:47:34.805Z,101248.06
2018-06-17T15:52:37.849Z,101248.95
2018-06-17T15:57:40.849Z,101262.61
2018-06-17T16:02:43.894Z,101258.20
2018-06-17T16:07:47.032Z,101250.81
2018-06-17T16:12:55.631Z,101253.98
2018-06-17T16:19:05.003Z,101245.23
2018-06-17T16:24:08.033Z,101248.44
2018-06-17T16:29:11.197Z,101251.35
2018-06-17T16:34:14.203Z,101254.52
2018-06-17T16:39:17.181Z,101259.47
2018-06-17T16:44:20.211Z,101266.80
2018-06-17T16:49:23.350Z,101271.54
2018-06-17T16:54:33.117Z,101266.20
2018-06-17T17:00:41.357Z,101272.62
2018-06-17T17:05:44.419Z,101275.00
2018-06-17T17:10:47.414Z,101277.91
2018-06-17T17:15:50.407Z,101283.37
2018-06-17T17:20:53.418Z,101287.55
2018-06-17T17:25:56.780Z,101289.12
2018-06-17T17:31:00.139Z,101290.19
2018-06-17T17:36:08.877Z,101295.91
2018-06-17T17:41:11.910Z,101271.26
2018-06-17T17:46:20.554Z,101293.87
2018-06-17T17:51:23.599Z,101297.03
2018-06-17T17:56:26.823Z,101283.37
2018-06-17T18:01:29.833Z,101305.98
2018-06-17T18:06:32.834Z,101318.66
2018-06-17T18:11:35.867Z,101316.47
2018-06-17T18:16:38.969Z,101307.48
2018-06-17T18:21:42.260Z,101310.27
2018-06-17T18:26:51.733Z,101321.55
2018-06-17T18:32:00.427Z,101323.23
2018-06-17T18:37:03.501Z,101329.77
2018-06-17T18:42:06.590Z,101331.79
2018-06-17T18:47:09.865Z,101333.99
2018-06-17T18:52:13.120Z,101337.27
2018-06-17T18:57:16.230Z,101335.13
2018-06-17T19:02:19.558Z,101336.89
2018-06-17T19:07:23.359Z,101330.42
2018-06-17T19:12:32.427Z,101336.70
2018-06-17T19:17:41.137Z,101333.39
2018-06-17T19:22:44.115Z,101327.63
2018-06-17T19:27:47.125Z,101337.20
2018-06-17T19:32:50.241Z,101341.91
2018-06-17T19:37:53.372Z,101335.31
2018-06-17T19:42:56.381Z,101336.55
2018-06-17T19:47:59.598Z,101346.58
2018-06-17T19:53:08.316Z,101351.63
2018-06-17T19:58:17.037Z,101347.80
2018-06-17T20:03:20.103Z,101350.74
2018-06-17T20:08:23.331Z,101348.02
2018-06-17T20:13:26.506Z,101358.91
2018-06-17T20:18:29.570Z,101363.13
2018-06-17T20:23:32.702Z,101376.52
2018-06-17T20:28:36.089Z,101377.36
2018-06-17T20:33:44.934Z,101384.16
2018-06-17T20:38:53.825Z,101388.70
2018-06-17T20:43:57.058Z,101387.69
2018-06-17T20:49:00.775Z,101400.20
2018-06-17T20:54:03.921Z,101395.95
2018-06-17T20:59:07.120Z,101403.48
2018-06-17T21:04:10.268Z,101410.21
2018-06-17T21:09:13.273Z,101403.59
2018-06-17T21:14:16.325Z,101396.39
2018-06-17T21:19:24.883Z,101416.35
2018-06-17T21:24:33.585Z,101421.02
2018-06-17T21:29:36.619Z,101428.72
2018-06-17T21:34:39.657Z,101438.99
2018-06-17T21:39:42.772Z,101440.09
2018-06-17T21:44:45.870Z,101446.72
2018-06-17T21:49:48.931Z,101455.84
2018-06-17T21:54:52.159Z,101458.58
2018-06-17T21:59:55.585Z,101464.73
2018-06-17T22:04:58.578Z,101463.09
2018-06-17T22:10:07.316Z,101469.52
2018-06-17T22:15:16.162Z,101465.14
2018-06-17T22:20:19.442Z,101470.68
2018-06-17T22:25:25.794Z,101470.31
2018-06-17T22:30:28.863Z,101477.14
2018-06-17T22:35:32.034Z,101466.27
2018-06-17T22:40:35.094Z,101465.98
2018-06-17T22:45:38.134Z,101469.78
2018-06-17T22:50:41.243Z,101473.02
2018-06-17T22:55:44.306Z,101470.17
2018-06-17T23:00:52.908Z,101475.02
2018-06-17T23:06:01.458Z,101470.09
2018-06-17T23:11:04.545Z,101470.64
2018-06-17T23:16:07.594Z,101467.59
2018-06-17T23:21:10.617Z,101474.23
2018-06-17T23:26:13.991Z,101471.02
2018-06-17T23:31:17.083Z,101465.14
2018-06-17T23:36:20.166Z,101466.28
2018-06-17T23:41:23.281Z,101466.78
2018-06-17T23:46:31.871Z,101478.33
2018-06-17T23:51:40.485Z,101483.64
2018-06-17T23:56:43.716Z,101500.23
